Terminal Aerodrome Forecast
Issued by NWS St Louis, MO

Home | Current Version | Previous Version | Graphics & Text | Print | Product List | Glossary On
Versions: 1 2 3 4 5 6 7 8 9 10 11 12 13 14 15 16 17 18 19 20 21 22 23 24 25 26 27 28 29 30 31 32 33
000
FTUS43 KLSX 250300 AAB
TAFSTL
TAF AMD
KSTL 250303Z 2503/2606 13014G24KT 5SM -SHRA BKN030 OVC060
      TEMPO 2503/2504 2SM +TSRA OVC010CB
     FM250500 23012G21KT P6SM BKN015
     FM250900 28009KT 4SM BR SCT015
     FM251500 25005KT P6SM BKN250
     FM252300 04010KT P6SM SCT040 BKN080
      TEMPO 2603/2606 3SM SHRA=

USA.gov is the U.S. government's official web portal to all federal, state and local government web resources and services.